createdAt,value
2023-03-08T00:00:21.504Z,4.00
2023-03-08T00:01:21.450Z,4.00
2023-03-08T00:02:42.315Z,4.00
2023-03-08T00:03:21.262Z,4.00
2023-03-08T00:04:21.401Z,0.00
2023-03-08T00:05:21.136Z,0.00
2023-03-08T00:06:21.073Z,0.00
2023-03-08T00:07:20.968Z,0.00
2023-03-08T00:08:41.948Z,0.00
2023-03-08T00:09:20.831Z,0.00
2023-03-08T00:10:20.757Z,0.00
2023-03-08T00:11:20.692Z,0.00
2023-03-08T00:12:20.622Z,0.00
2023-03-08T00:13:20.554Z,0.00
2023-03-08T00:14:41.466Z,0.00
2023-03-08T00:15:20.401Z,0.00
2023-03-08T00:16:20.374Z,0.00
2023-03-08T00:17:20.258Z,0.00
2023-03-08T00:18:20.249Z,0.00
2023-03-08T00:19:20.111Z,0.00
2023-03-08T00:20:41.031Z,0.00
2023-03-08T00:21:19.973Z,0.00
2023-03-08T00:22:19.896Z,0.00
2023-03-08T00:23:19.828Z,0.00
2023-03-08T00:24:19.755Z,0.00
2023-03-08T00:25:19.679Z,0.00
2023-03-08T00:26:40.602Z,0.00
2023-03-08T00:27:19.558Z,0.00
2023-03-08T00:28:19.485Z,0.00
2023-03-08T00:29:19.425Z,0.00
2023-03-08T00:30:19.333Z,0.00
2023-03-08T00:31:19.306Z,0.00
2023-03-08T00:32:40.215Z,0.00
2023-03-08T00:33:19.120Z,0.00
2023-03-08T00:34:19.040Z,0.00
2023-03-08T00:35:19.069Z,0.00
2023-03-08T00:36:18.907Z,0.00
2023-03-08T00:37:18.819Z,0.00
2023-03-08T00:38:39.759Z,0.00
2023-03-08T00:39:18.687Z,0.00
2023-03-08T00:40:18.637Z,0.00
2023-03-08T00:41:18.566Z,0.00
2023-03-08T00:42:18.510Z,0.00
2023-03-08T00:43:18.404Z,0.00
2023-03-08T00:44:39.314Z,0.00
2023-03-08T00:45:18.263Z,0.00
2023-03-08T00:46:18.248Z,0.00
2023-03-08T00:47:18.111Z,0.00
2023-03-08T00:48:18.043Z,0.00
2023-03-08T00:49:17.977Z,0.00
2023-03-08T00:50:38.896Z,0.00
2023-03-08T00:51:17.826Z,0.00
2023-03-08T00:52:17.761Z,0.00
2023-03-08T00:53:17.684Z,0.00
2023-03-08T00:54:17.615Z,0.00
2023-03-08T00:55:17.532Z,0.00
2023-03-08T00:56:38.456Z,0.00
2023-03-08T00:57:17.401Z,0.00
2023-03-08T00:58:17.334Z,0.00
2023-03-08T00:59:17.242Z,0.00
2023-03-08T01:00:17.184Z,0.00
2023-03-08T01:01:17.220Z,0.00
2023-03-08T01:02:38.015Z,0.00
2023-03-08T01:03:16.965Z,0.00
2023-03-08T01:04:16.903Z,0.00
2023-03-08T01:05:16.824Z,0.00
2023-03-08T01:06:16.775Z,0.00
2023-03-08T01:07:16.689Z,0.00
2023-03-08T01:08:37.590Z,0.00
2023-03-08T01:09:16.536Z,0.00
2023-03-08T01:10:16.475Z,0.00
2023-03-08T01:11:16.383Z,0.00
2023-03-08T01:12:16.314Z,0.00
2023-03-08T01:13:16.246Z,0.00
2023-03-08T01:14:37.225Z,0.00
2023-03-08T01:15:16.112Z,0.00
2023-03-08T01:16:16.025Z,0.00
2023-03-08T01:17:15.979Z,0.00
2023-03-08T01:18:15.890Z,0.00
2023-03-08T01:19:15.808Z,0.00
2023-03-08T01:20:36.732Z,0.00
2023-03-08T01:21:15.674Z,0.00
2023-03-08T01:22:15.617Z,0.00
2023-03-08T01:23:15.514Z,0.00
2023-03-08T01:24:15.458Z,0.00
2023-03-08T01:25:15.392Z,0.00
2023-03-08T01:26:36.305Z,0.00
2023-03-08T01:27:15.235Z,0.00
2023-03-08T01:28:15.200Z,0.00
2023-03-08T01:29:15.093Z,0.00
2023-03-08T01:30:15.021Z,0.00
2023-03-08T01:31:14.946Z,0.00
2023-03-08T01:32:35.912Z,0.00
2023-03-08T01:33:14.801Z,0.00
2023-03-08T01:34:14.733Z,0.00
2023-03-08T01:35:14.661Z,0.00
2023-03-08T01:36:14.587Z,0.00
2023-03-08T01:37:14.512Z,0.00
2023-03-08T01:38:35.419Z,0.00
2023-03-08T01:39:14.380Z,0.00
2023-03-08T01:40:14.299Z,0.00
2023-03-08T01:41:14.224Z,0.00
2023-03-08T01:42:14.159Z,0.00
2023-03-08T01:43:14.074Z,0.00
2023-03-08T01:44:35.025Z,0.00
2023-03-08T01:45:13.930Z,0.00
2023-03-08T01:46:13.910Z,0.00
2023-03-08T01:47:13.784Z,0.00
2023-03-08T01:48:13.721Z,0.00
2023-03-08T01:49:13.652Z,0.00
2023-03-08T01:50:34.567Z,0.00
2023-03-08T01:51:13.513Z,0.00
2023-03-08T01:52:13.426Z,0.00
2023-03-08T01:53:13.373Z,0.00
2023-03-08T01:54:13.284Z,0.00
2023-03-08T01:55:13.260Z,0.00
2023-03-08T01:56:34.127Z,0.00
2023-03-08T01:57:13.069Z,0.00
2023-03-08T01:58:13.004Z,0.00
2023-03-08T01:59:12.932Z,0.00
2023-03-08T02:00:12.857Z,0.00
2023-03-08T02:01:12.885Z,0.00
2023-03-08T02:02:33.690Z,0.00
2023-03-08T02:03:12.637Z,0.00
2023-03-08T02:04:12.572Z,0.00
2023-03-08T02:05:12.493Z,0.00
2023-03-08T02:06:12.420Z,0.00
2023-03-08T02:07:12.356Z,0.00
2023-03-08T02:08:33.272Z,0.00
2023-03-08T02:09:12.212Z,0.00
2023-03-08T02:10:12.135Z,0.00
2023-03-08T02:11:12.067Z,0.00
2023-03-08T02:12:12.002Z,0.00
2023-03-08T02:13:11.917Z,0.00
2023-03-08T02:14:32.832Z,0.00
2023-03-08T02:15:11.784Z,0.00
2023-03-08T02:16:11.700Z,0.00
2023-03-08T02:17:11.633Z,0.00
2023-03-08T02:18:11.562Z,0.00
2023-03-08T02:19:11.483Z,0.00
2023-03-08T02:20:32.400Z,0.00
2023-03-08T02:21:11.346Z,0.00
2023-03-08T02:22:11.271Z,0.00
2023-03-08T02:23:11.209Z,0.00
2023-03-08T02:24:11.124Z,0.00
2023-03-08T02:25:11.058Z,0.00
2023-03-08T02:26:31.963Z,0.00
2023-03-08T02:27:10.913Z,0.00
2023-03-08T02:28:10.840Z,0.00
2023-03-08T02:29:10.775Z,0.00
2023-03-08T02:30:10.717Z,0.00
2023-03-08T02:31:10.628Z,0.00
2023-03-08T02:32:31.569Z,0.00
2023-03-08T02:33:10.486Z,0.00
2023-03-08T02:34:10.409Z,0.00
2023-03-08T02:35:10.337Z,0.00
2023-03-08T02:36:10.346Z,0.00
2023-03-08T02:37:10.194Z,0.00
2023-03-08T02:38:31.097Z,0.00
2023-03-08T02:39:10.050Z,0.00
2023-03-08T02:40:09.970Z,0.00
2023-03-08T02:41:09.913Z,0.00
2023-03-08T02:42:09.836Z,0.00
2023-03-08T02:43:09.762Z,0.00
2023-03-08T02:44:30.661Z,0.00
2023-03-08T02:45:09.612Z,0.00
2023-03-08T02:46:09.539Z,0.00
2023-03-08T02:47:09.466Z,0.00
2023-03-08T02:48:09.427Z,0.00
2023-03-08T02:49:09.318Z,0.00
2023-03-08T02:50:30.227Z,0.00
2023-03-08T02:51:09.180Z,0.00
2023-03-08T02:52:09.106Z,0.00
2023-03-08T02:53:09.044Z,0.00
2023-03-08T02:54:08.955Z,0.00
2023-03-08T02:55:08.891Z,0.00
2023-03-08T02:56:29.804Z,0.00
2023-03-08T02:57:08.791Z,0.00
2023-03-08T02:58:08.667Z,0.00
2023-03-08T02:59:08.604Z,0.00
2023-03-08T03:00:08.533Z,0.00
2023-03-08T03:01:08.544Z,0.00
2023-03-08T03:02:29.372Z,0.00
2023-03-08T03:03:08.330Z,0.00
2023-03-08T03:04:08.251Z,0.00
2023-03-08T03:05:08.175Z,0.00
2023-03-08T03:06:08.119Z,0.00
2023-03-08T03:07:08.032Z,0.00
2023-03-08T03:08:28.939Z,0.00
2023-03-08T03:09:07.880Z,0.00
2023-03-08T03:10:07.799Z,0.00
2023-03-08T03:11:07.733Z,0.00
2023-03-08T03:12:07.801Z,0.00
2023-03-08T03:13:07.587Z,0.00
2023-03-08T03:14:28.499Z,0.00
2023-03-08T03:15:07.466Z,0.00
2023-03-08T03:16:07.488Z,0.00
2023-03-08T03:17:07.298Z,0.00
2023-03-08T03:18:07.237Z,0.00
2023-03-08T03:19:07.171Z,0.00
2023-03-08T03:20:28.067Z,0.00
2023-03-08T03:21:07.021Z,0.00
2023-03-08T03:22:06.951Z,0.00
2023-03-08T03:23:06.866Z,0.00
2023-03-08T03:24:06.788Z,0.00
2023-03-08T03:25:06.732Z,0.00
2023-03-08T03:26:27.630Z,0.00
2023-03-08T03:27:06.586Z,0.00
2023-03-08T03:28:06.511Z,0.00
2023-03-08T03:29:06.445Z,0.00
2023-03-08T03:30:06.359Z,0.00
2023-03-08T03:31:06.350Z,0.00
2023-03-08T03:32:27.248Z,0.00
2023-03-08T03:33:06.146Z,0.00
2023-03-08T03:34:06.086Z,0.00
2023-03-08T03:35:06.020Z,0.00
2023-03-08T03:36:05.983Z,0.00
2023-03-08T03:37:05.864Z,0.00
2023-03-08T03:38:26.764Z,0.00
2023-03-08T03:39:05.714Z,0.00
2023-03-08T03:40:05.673Z,0.00
2023-03-08T03:41:05.572Z,0.00
2023-03-08T03:42:05.500Z,0.00
2023-03-08T03:43:05.435Z,0.00
2023-03-08T03:44:26.362Z,0.00
2023-03-08T03:45:05.324Z,0.00
2023-03-08T03:46:05.230Z,0.00
2023-03-08T03:47:05.145Z,0.00
2023-03-08T03:48:05.072Z,0.00
2023-03-08T03:49:05.002Z,0.00
2023-03-08T03:50:25.914Z,0.00
2023-03-08T03:51:04.891Z,0.00
2023-03-08T03:52:04.802Z,0.00
2023-03-08T03:53:04.765Z,0.00
2023-03-08T03:54:07.024Z,0.00
2023-03-08T03:55:04.575Z,0.00
2023-03-08T03:56:25.482Z,0.00
2023-03-08T03:57:04.434Z,0.00
2023-03-08T03:58:04.355Z,0.00
2023-03-08T03:59:04.293Z,0.00
2023-03-08T04:00:04.215Z,0.00
2023-03-08T04:01:04.153Z,0.00
2023-03-08T04:02:25.059Z,0.00
2023-03-08T04:03:04.056Z,0.00
2023-03-08T04:04:04.004Z,0.00
2023-03-08T04:05:03.862Z,0.00
2023-03-08T04:06:03.789Z,0.00
2023-03-08T04:07:03.732Z,0.00
2023-03-08T04:08:24.675Z,0.00
2023-03-08T04:09:03.589Z,0.00
2023-03-08T04:10:03.511Z,0.00
2023-03-08T04:11:03.434Z,0.00
2023-03-08T04:12:03.360Z,0.00
2023-03-08T04:13:03.294Z,0.00
2023-03-08T04:14:24.199Z,0.00
2023-03-08T04:15:03.149Z,0.00
2023-03-08T04:16:03.089Z,0.00
2023-03-08T04:17:03.022Z,0.00
2023-03-08T04:18:02.965Z,0.00
2023-03-08T04:19:02.870Z,0.00
2023-03-08T04:20:23.777Z,0.00
2023-03-08T04:21:02.718Z,0.00
2023-03-08T04:22:02.640Z,0.00
2023-03-08T04:23:02.578Z,0.00
2023-03-08T04:24:03.156Z,0.00
2023-03-08T04:25:02.428Z,0.00
2023-03-08T04:26:23.346Z,0.00
2023-03-08T04:27:02.290Z,0.00
2023-03-08T04:28:02.222Z,0.00
2023-03-08T04:29:02.167Z,0.00
2023-03-08T04:30:02.104Z,0.00
2023-03-08T04:31:02.054Z,0.00
2023-03-08T04:32:22.965Z,0.00
2023-03-08T04:33:01.858Z,0.00
2023-03-08T04:34:01.784Z,0.00
2023-03-08T04:35:01.766Z,0.00
2023-03-08T04:36:01.655Z,0.00
2023-03-08T04:37:01.570Z,0.00
2023-03-08T04:38:22.481Z,0.00
2023-03-08T04:39:01.436Z,0.00
2023-03-08T04:40:01.359Z,0.00
2023-03-08T04:41:01.292Z,0.00
2023-03-08T04:42:01.208Z,0.00
2023-03-08T04:43:01.169Z,0.00
2023-03-08T04:44:22.059Z,0.00
2023-03-08T04:45:01.002Z,0.00
2023-03-08T04:46:00.931Z,0.00
2023-03-08T04:47:00.972Z,0.00
2023-03-08T04:48:00.784Z,0.00
2023-03-08T04:49:00.720Z,0.00
2023-03-08T04:50:21.627Z,0.00
2023-03-08T04:51:00.577Z,0.00
2023-03-08T04:52:00.507Z,0.00
2023-03-08T04:53:00.427Z,0.00
2023-03-08T04:54:00.361Z,0.00
2023-03-08T04:55:00.299Z,0.00
2023-03-08T04:56:21.199Z,0.00
2023-03-08T04:57:00.146Z,0.00
2023-03-08T04:58:00.076Z,0.00
2023-03-08T04:59:00.004Z,0.00
2023-03-08T04:59:59.924Z,0.00
2023-03-08T05:00:59.866Z,0.00
2023-03-08T05:02:20.800Z,0.00
2023-03-08T05:02:59.720Z,0.00
2023-03-08T05:03:59.655Z,0.00
2023-03-08T05:04:59.586Z,0.00
2023-03-08T05:05:59.497Z,0.00
2023-03-08T05:06:59.425Z,4.00
2023-03-08T05:08:20.335Z,4.00
2023-03-08T05:08:59.284Z,0.00
2023-03-08T05:09:59.204Z,0.00
2023-03-08T05:11:00.932Z,0.00
2023-03-08T05:11:59.064Z,4.00
2023-03-08T05:12:58.996Z,0.00
2023-03-08T05:14:19.916Z,4.00
2023-03-08T05:14:58.851Z,0.00
2023-03-08T05:15:58.828Z,4.00
2023-03-08T05:16:59.985Z,4.00
2023-03-08T05:17:58.640Z,8.00
2023-03-08T05:18:58.614Z,4.00
2023-03-08T05:20:19.505Z,4.00
2023-03-08T05:20:58.429Z,8.00
2023-03-08T05:21:58.349Z,8.00
2023-03-08T05:22:59.494Z,8.00
2023-03-08T05:23:58.206Z,8.00
2023-03-08T05:24:58.158Z,12.00
2023-03-08T05:26:19.049Z,16.00
2023-03-08T05:26:57.993Z,20.00
2023-03-08T05:27:57.925Z,24.00
2023-03-08T05:28:57.852Z,28.00
2023-03-08T05:29:57.782Z,32.00
2023-03-08T05:30:57.709Z,40.00
2023-03-08T05:32:18.668Z,44.00
2023-03-08T05:32:57.561Z,52.00
2023-03-08T05:33:57.499Z,52.00
2023-03-08T05:34:57.427Z,56.00
2023-03-08T05:35:57.409Z,60.00
2023-03-08T05:36:57.272Z,68.00
2023-03-08T05:38:18.190Z,72.00
2023-03-08T05:38:57.133Z,80.00
2023-03-08T05:39:57.056Z,84.00
2023-03-08T05:40:56.988Z,92.00
2023-03-08T05:41:56.928Z,100.00
2023-03-08T05:42:56.841Z,104.00
2023-03-08T05:44:17.752Z,116.00
2023-03-08T05:44:56.700Z,128.00
2023-03-08T05:45:56.806Z,144.00
2023-03-08T05:46:56.561Z,160.00
2023-03-08T05:47:56.483Z,172.00
2023-03-08T05:48:56.415Z,184.00
2023-03-08T05:50:17.323Z,200.00
2023-03-08T05:50:56.277Z,216.00
2023-03-08T05:51:56.199Z,232.00
2023-03-08T05:52:56.131Z,248.00
2023-03-08T05:53:56.055Z,264.00
2023-03-08T05:54:55.983Z,272.00
2023-03-08T05:56:16.901Z,280.00
2023-03-08T05:56:55.844Z,292.00
2023-03-08T05:57:55.765Z,308.00
2023-03-08T05:58:55.699Z,324.00
2023-03-08T05:59:55.660Z,348.00
2023-03-08T06:00:55.557Z,376.00
2023-03-08T06:02:16.534Z,404.00
2023-03-08T06:02:55.428Z,452.00
2023-03-08T06:03:55.382Z,500.00
2023-03-08T06:04:55.273Z,528.00
2023-03-08T06:05:55.212Z,536.00
2023-03-08T06:06:55.118Z,548.00
2023-03-08T06:08:16.036Z,556.00
2023-03-08T06:08:54.978Z,572.00
2023-03-08T06:09:54.909Z,596.00
2023-03-08T06:10:54.829Z,612.00
2023-03-08T06:11:54.761Z,652.00
2023-03-08T06:12:54.693Z,708.00
2023-03-08T06:14:15.628Z,756.00
2023-03-08T06:14:54.559Z,804.00
2023-03-08T06:15:54.479Z,868.00
2023-03-08T06:16:54.437Z,888.00
2023-03-08T06:17:54.345Z,888.00
2023-03-08T06:18:54.258Z,992.00
2023-03-08T06:20:15.178Z,1004.00
2023-03-08T06:20:54.124Z,1024.00
2023-03-08T06:21:54.081Z,1040.00
2023-03-08T06:22:53.984Z,1100.00
2023-03-08T06:23:53.907Z,1068.00
2023-03-08T06:24:53.827Z,1072.00
2023-03-08T06:26:14.751Z,1160.00
2023-03-08T06:26:53.692Z,1260.00
2023-03-08T06:27:53.628Z,1248.00
2023-03-08T06:28:53.548Z,1300.00
2023-03-08T06:29:53.492Z,1400.00
2023-03-08T06:30:53.447Z,1484.00
2023-03-08T06:32:14.359Z,1664.00
2023-03-08T06:32:53.268Z,1712.00
2023-03-08T06:33:53.197Z,1764.00
2023-03-08T06:34:53.129Z,1704.00
2023-03-08T06:35:53.117Z,1636.00
2023-03-08T06:36:52.980Z,1596.00
2023-03-08T06:38:13.907Z,1656.00
2023-03-08T06:38:52.862Z,1724.00
2023-03-08T06:39:52.802Z,1752.00
2023-03-08T06:40:52.698Z,1896.00
2023-03-08T06:41:52.636Z,2008.00
2023-03-08T06:42:52.560Z,1980.00
2023-03-08T06:44:13.481Z,2084.00
2023-03-08T06:44:52.435Z,2608.00
2023-03-08T06:45:52.374Z,2924.00
2023-03-08T06:46:52.281Z,3824.00
2023-03-08T06:47:52.211Z,3784.00
2023-03-08T06:48:52.136Z,4388.00
2023-03-08T06:50:13.051Z,4608.00
2023-03-08T06:50:51.984Z,4908.00
2023-03-08T06:51:51.923Z,4032.00
2023-03-08T06:52:51.848Z,3672.00
2023-03-08T06:53:51.775Z,3052.00
2023-03-08T06:54:51.704Z,3712.00
2023-03-08T06:56:12.624Z,3976.00
2023-03-08T06:56:51.575Z,4420.00
2023-03-08T06:57:51.499Z,5960.00
2023-03-08T06:58:51.432Z,4664.00
2023-03-08T06:59:51.360Z,5412.00
2023-03-08T07:00:51.288Z,5120.00
2023-03-08T07:02:12.204Z,5936.00
2023-03-08T07:02:51.149Z,4484.00
2023-03-08T07:03:51.077Z,3528.00
2023-03-08T07:04:51.107Z,3456.00
2023-03-08T07:05:50.932Z,3452.00
2023-03-08T07:06:50.889Z,3692.00
2023-03-08T07:08:11.780Z,4188.00
2023-03-08T07:08:50.717Z,3476.00
2023-03-08T07:09:50.652Z,3564.00
2023-03-08T07:10:50.597Z,3796.00
2023-03-08T07:11:50.513Z,4052.00
2023-03-08T07:12:50.434Z,4936.00
2023-03-08T07:14:11.361Z,6112.00
2023-03-08T07:14:50.304Z,5704.00
2023-03-08T07:15:50.278Z,4284.00
2023-03-08T07:16:50.163Z,3696.00
2023-03-08T07:17:50.118Z,4020.00
2023-03-08T07:18:50.026Z,4608.00
2023-03-08T07:20:10.933Z,4916.00
2023-03-08T07:20:49.886Z,4808.00
2023-03-08T07:21:49.826Z,6072.00
2023-03-08T07:22:49.747Z,7012.00
2023-03-08T07:23:49.681Z,6100.00
2023-03-08T07:24:49.839Z,7192.00
2023-03-08T07:26:10.518Z,7272.00
2023-03-08T07:26:49.468Z,7408.00
2023-03-08T07:27:49.410Z,6924.00
2023-03-08T07:28:49.335Z,6928.00
2023-03-08T07:29:49.268Z,8604.00
2023-03-08T07:30:49.214Z,9348.00
2023-03-08T07:32:10.210Z,9664.00
2023-03-08T07:32:49.184Z,9832.00
2023-03-08T07:33:49.004Z,8736.00
2023-03-08T07:34:48.931Z,9244.00
2023-03-08T07:35:48.892Z,9256.00
2023-03-08T07:36:48.782Z,10064.00
2023-03-08T07:38:09.704Z,10460.00
2023-03-08T07:38:48.659Z,11296.00
2023-03-08T07:39:48.591Z,11740.00
2023-03-08T07:40:48.530Z,11944.00
2023-03-08T07:41:48.456Z,12584.00
2023-03-08T07:42:48.384Z,12504.00
2023-03-08T07:44:09.317Z,11392.00
2023-03-08T07:44:48.247Z,10428.00
2023-03-08T07:45:48.191Z,10372.00
2023-03-08T07:46:48.215Z,10028.00
2023-03-08T07:47:48.052Z,10392.00
2023-03-08T07:48:48.002Z,10344.00
2023-03-08T07:50:08.909Z,10396.00
2023-03-08T07:50:47.862Z,10796.00
2023-03-08T07:51:47.806Z,10380.00
2023-03-08T07:52:47.741Z,10744.00
2023-03-08T07:53:47.675Z,11584.00
2023-03-08T07:54:47.588Z,12180.00
2023-03-08T07:56:08.530Z,12356.00
2023-03-08T07:56:47.463Z,11560.00
2023-03-08T07:57:47.410Z,11696.00
2023-03-08T07:58:47.347Z,11308.00
2023-03-08T07:59:47.294Z,11628.00
2023-03-08T08:00:47.223Z,12532.00
2023-03-08T08:02:08.155Z,12716.00
2023-03-08T08:02:47.161Z,13464.00
2023-03-08T08:03:47.057Z,12912.00
2023-03-08T08:04:46.968Z,7600.00
2023-03-08T08:05:46.922Z,10800.00
2023-03-08T08:06:46.850Z,9944.00
2023-03-08T08:08:07.755Z,9008.00
2023-03-08T08:08:46.700Z,9160.00
2023-03-08T08:09:46.657Z,7264.00
2023-03-08T08:10:46.598Z,9532.00
2023-03-08T08:11:46.514Z,8960.00
2023-03-08T08:12:46.445Z,8176.00
2023-03-08T08:14:07.375Z,8068.00
2023-03-08T08:14:46.318Z,8876.00
2023-03-08T08:15:46.267Z,8424.00
2023-03-08T08:16:46.316Z,8768.00
2023-03-08T08:17:46.139Z,7280.00
2023-03-08T08:18:46.077Z,7492.00
2023-03-08T08:20:07.004Z,8268.00
2023-03-08T08:20:45.940Z,6260.00
2023-03-08T08:21:45.884Z,6936.00
2023-03-08T08:22:45.836Z,9176.00
2023-03-08T08:23:45.766Z,11412.00
2023-03-08T08:24:45.683Z,8832.00
2023-03-08T08:26:06.612Z,9968.00
2023-03-08T08:26:45.558Z,8488.00
2023-03-08T08:27:45.524Z,8188.00
2023-03-08T08:28:45.450Z,8244.00
2023-03-08T08:29:45.375Z,7308.00
2023-03-08T08:30:45.318Z,13088.00
2023-03-08T08:32:06.275Z,12620.00
2023-03-08T08:32:45.203Z,9316.00
2023-03-08T08:33:45.118Z,6056.00
2023-03-08T08:34:45.062Z,5116.00
2023-03-08T08:35:45.045Z,4848.00
2023-03-08T08:36:44.924Z,4620.00
2023-03-08T08:38:05.861Z,4580.00
2023-03-08T08:38:44.798Z,4808.00
2023-03-08T08:39:44.753Z,4468.00
2023-03-08T08:40:44.670Z,4636.00
2023-03-08T08:41:44.610Z,4120.00
2023-03-08T08:42:44.576Z,4024.00
2023-03-08T08:44:05.472Z,4020.00
2023-03-08T08:44:44.416Z,4480.00
2023-03-08T08:45:44.371Z,12000.00
2023-03-08T08:46:44.300Z,3448.00
2023-03-08T08:47:44.241Z,3788.00
2023-03-08T08:48:44.174Z,3584.00
2023-03-08T08:50:05.085Z,3512.00
2023-03-08T08:50:44.030Z,3416.00
2023-03-08T08:51:43.979Z,3440.00
2023-03-08T08:52:43.932Z,3200.00
2023-03-08T08:53:43.836Z,3944.00
2023-03-08T08:54:43.832Z,11480.00
2023-03-08T08:56:08.399Z,7788.00
2023-03-08T08:56:43.660Z,12168.00
2023-03-08T08:57:43.592Z,5028.00
2023-03-08T08:58:43.511Z,4080.00
2023-03-08T08:59:43.479Z,3972.00
2023-03-08T09:00:43.397Z,3968.00
2023-03-08T09:02:04.332Z,4256.00
2023-03-08T09:02:43.332Z,4020.00
2023-03-08T09:03:43.279Z,4032.00
2023-03-08T09:04:43.272Z,3996.00
2023-03-08T09:05:43.054Z,3928.00
2023-03-08T09:06:43.004Z,3500.00
2023-03-08T09:08:03.917Z,3572.00
2023-03-08T09:08:42.884Z,4312.00
2023-03-08T09:09:42.804Z,3684.00
2023-03-08T09:10:42.729Z,3936.00
2023-03-08T09:11:54.245Z,3828.00
2023-03-08T09:12:42.619Z,4064.00
2023-03-08T09:14:03.531Z,6952.00
2023-03-08T09:14:42.465Z,3588.00
2023-03-08T09:15:42.416Z,3676.00
2023-03-08T09:16:42.385Z,7080.00
2023-03-08T09:17:42.272Z,5020.00
2023-03-08T09:18:42.205Z,7292.00
2023-03-08T09:20:03.127Z,4028.00
2023-03-08T09:20:42.072Z,8100.00
2023-03-08T09:21:42.019Z,5116.00
2023-03-08T09:22:41.945Z,7664.00
2023-03-08T09:23:41.888Z,9912.00
2023-03-08T09:24:41.811Z,5968.00
2023-03-08T09:26:02.763Z,8280.00
2023-03-08T09:26:41.703Z,7152.00
2023-03-08T09:27:41.616Z,7020.00
2023-03-08T09:28:41.567Z,6552.00
2023-03-08T09:29:41.510Z,6872.00
2023-03-08T09:30:41.427Z,6960.00
2023-03-08T09:32:02.382Z,6888.00
2023-03-08T09:32:41.332Z,6212.00
2023-03-08T09:33:41.237Z,6752.00
2023-03-08T09:34:41.165Z,6196.00
2023-03-08T09:35:41.192Z,5992.00
2023-03-08T09:36:41.058Z,5604.00
2023-03-08T09:38:01.959Z,5480.00
2023-03-08T09:38:40.912Z,5792.00
2023-03-08T09:39:40.843Z,4792.00
2023-03-08T09:40:40.784Z,4900.00
2023-03-08T09:41:40.724Z,4116.00
2023-03-08T09:42:40.652Z,4596.00
2023-03-08T09:44:01.591Z,5044.00
2023-03-08T09:44:40.518Z,5072.00
2023-03-08T09:45:40.482Z,5080.00
2023-03-08T09:46:40.416Z,5368.00
2023-03-08T09:47:40.341Z,4996.00
2023-03-08T09:48:40.279Z,5016.00
2023-03-08T09:50:01.185Z,5440.00
2023-03-08T09:50:40.134Z,5624.00
2023-03-08T09:51:40.074Z,5696.00
2023-03-08T09:52:40.025Z,5644.00
2023-03-08T09:53:39.952Z,5072.00
2023-03-08T09:54:39.906Z,5020.00
2023-03-08T09:56:00.806Z,4800.00
2023-03-08T09:56:39.755Z,4732.00
2023-03-08T09:57:41.304Z,4916.00
2023-03-08T09:58:39.621Z,4604.00
2023-03-08T09:59:39.560Z,5392.00
2023-03-08T10:00:39.499Z,5424.00
2023-03-08T10:02:00.421Z,5840.00
2023-03-08T10:02:39.385Z,5924.00
2023-03-08T10:03:39.299Z,6740.00
2023-03-08T10:04:39.293Z,6580.00
2023-03-08T10:05:39.200Z,6776.00
2023-03-08T10:06:39.104Z,6652.00
2023-03-08T10:08:00.025Z,6340.00
2023-03-08T10:08:38.970Z,5840.00
2023-03-08T10:09:38.913Z,6180.00
2023-03-08T10:10:38.841Z,6704.00
2023-03-08T10:11:38.849Z,7316.00
2023-03-08T10:12:38.708Z,7192.00
2023-03-08T10:13:59.644Z,7592.00
2023-03-08T10:14:38.583Z,7368.00
2023-03-08T10:15:40.682Z,7064.00
2023-03-08T10:16:38.490Z,7764.00
2023-03-08T10:17:38.394Z,7624.00
2023-03-08T10:18:38.325Z,8128.00
2023-03-08T10:19:59.289Z,7372.00
2023-03-08T10:20:38.196Z,7320.00
2023-03-08T10:21:38.145Z,6984.00
2023-03-08T10:22:38.081Z,6828.00
2023-03-08T10:23:38.074Z,6524.00
2023-03-08T10:24:37.956Z,6544.00
2023-03-08T10:25:58.895Z,5140.00
2023-03-08T10:26:37.834Z,5100.00
2023-03-08T10:27:37.808Z,5056.00
2023-03-08T10:28:37.802Z,5320.00
2023-03-08T10:29:37.701Z,5896.00
2023-03-08T10:30:37.630Z,5064.00
2023-03-08T10:31:58.508Z,5072.00
2023-03-08T10:32:37.499Z,5100.00
2023-03-08T10:33:37.391Z,4896.00
2023-03-08T10:34:37.343Z,4844.00
2023-03-08T10:35:37.281Z,4740.00
2023-03-08T10:36:37.206Z,4628.00
2023-03-08T10:37:58.135Z,4844.00
2023-03-08T10:38:37.093Z,4652.00
2023-03-08T10:39:37.052Z,4568.00
2023-03-08T10:40:36.954Z,4588.00
2023-03-08T10:41:36.882Z,4864.00
2023-03-08T10:42:36.828Z,5800.00
2023-03-08T10:43:57.760Z,5944.00
2023-03-08T10:44:36.696Z,5444.00
2023-03-08T10:45:36.632Z,5280.00
2023-03-08T10:46:36.593Z,5068.00
2023-03-08T10:47:36.566Z,4924.00
2023-03-08T10:48:36.444Z,4804.00
2023-03-08T10:49:57.368Z,4748.00
2023-03-08T10:50:36.323Z,4548.00
2023-03-08T10:51:36.265Z,4464.00
2023-03-08T10:52:36.194Z,4528.00
2023-03-08T10:53:36.161Z,4592.00
2023-03-08T10:54:36.078Z,4632.00
2023-03-08T10:55:57.004Z,4732.00
2023-03-08T10:56:35.982Z,4856.00
2023-03-08T10:57:35.875Z,4956.00
2023-03-08T10:58:35.827Z,4872.00
2023-03-08T10:59:35.745Z,5096.00
2023-03-08T11:00:35.685Z,5064.00
2023-03-08T11:01:56.601Z,4824.00
2023-03-08T11:02:35.565Z,4968.00
2023-03-08T11:03:35.493Z,5052.00
2023-03-08T11:04:35.434Z,4736.00
2023-03-08T11:05:35.361Z,5012.00
2023-03-08T11:06:35.331Z,4936.00
2023-03-08T11:07:56.239Z,4500.00
2023-03-08T11:08:35.185Z,4572.00
2023-03-08T11:09:35.098Z,4504.00
2023-03-08T11:10:35.116Z,4600.00
2023-03-08T11:11:34.987Z,4792.00
2023-03-08T11:12:34.921Z,4628.00
2023-03-08T11:13:55.852Z,4464.00
2023-03-08T11:14:34.840Z,4736.00
2023-03-08T11:15:34.780Z,4544.00
2023-03-08T11:16:34.659Z,4316.00
2023-03-08T11:17:34.598Z,4192.00
2023-03-08T11:18:34.597Z,4204.00
2023-03-08T11:19:55.462Z,4196.00
2023-03-08T11:20:34.408Z,4192.00
2023-03-08T11:21:34.361Z,4228.00
2023-03-08T11:22:34.297Z,4244.00
2023-03-08T11:23:34.222Z,4180.00
2023-03-08T11:24:34.202Z,4112.00
2023-03-08T11:25:55.089Z,4044.00
2023-03-08T11:26:34.032Z,4052.00
2023-03-08T11:27:33.997Z,4068.00
2023-03-08T11:28:33.937Z,4084.00
2023-03-08T11:29:33.833Z,4232.00
2023-03-08T11:30:33.773Z,4128.00
2023-03-08T11:31:54.696Z,4012.00
2023-03-08T11:32:33.700Z,3968.00
2023-03-08T11:33:33.752Z,4052.00
2023-03-08T11:34:33.526Z,4076.00
2023-03-08T11:35:33.464Z,4120.00
2023-03-08T11:36:33.387Z,3888.00
2023-03-08T11:37:54.312Z,3760.00
2023-03-08T11:38:33.259Z,3708.00
2023-03-08T11:39:33.219Z,3712.00
2023-03-08T11:40:33.124Z,3696.00
2023-03-08T11:41:33.061Z,3644.00
2023-03-08T11:42:33.006Z,3544.00
2023-03-08T11:43:53.918Z,3428.00
2023-03-08T11:44:32.872Z,3308.00
2023-03-08T11:45:32.806Z,3160.00
2023-03-08T11:46:32.787Z,3024.00
2023-03-08T11:47:32.676Z,2912.00
2023-03-08T11:48:32.629Z,2832.00
2023-03-08T11:49:53.540Z,2804.00
2023-03-08T11:50:32.486Z,2852.00
2023-03-08T11:51:32.414Z,2896.00
2023-03-08T11:52:32.367Z,2948.00
2023-03-08T11:53:32.283Z,2996.00
2023-03-08T11:54:32.223Z,3012.00
2023-03-08T11:55:53.140Z,3000.00
2023-03-08T11:56:32.108Z,2988.00
2023-03-08T11:57:32.040Z,2996.00
2023-03-08T11:58:31.963Z,3040.00
2023-03-08T11:59:31.888Z,3076.00
2023-03-08T12:00:31.834Z,3104.00
2023-03-08T12:01:52.751Z,3128.00
2023-03-08T12:02:31.695Z,3104.00
2023-03-08T12:03:31.735Z,3052.00
2023-03-08T12:04:31.611Z,2968.00
2023-03-08T12:05:31.500Z,2880.00
2023-03-08T12:06:33.395Z,2816.00
2023-03-08T12:07:52.380Z,2772.00
2023-03-08T12:08:31.320Z,2768.00
2023-03-08T12:09:31.233Z,2780.00
2023-03-08T12:10:31.270Z,2772.00
2023-03-08T12:11:31.102Z,2752.00
2023-03-08T12:12:31.035Z,2724.00
2023-03-08T12:13:51.961Z,2688.00
2023-03-08T12:14:30.929Z,2660.00
2023-03-08T12:15:30.873Z,2628.00
2023-03-08T12:16:30.887Z,2592.00
2023-03-08T12:17:30.757Z,2548.00
2023-03-08T12:18:30.645Z,2508.00
2023-03-08T12:19:51.562Z,2468.00
2023-03-08T12:20:30.531Z,2432.00
2023-03-08T12:21:30.449Z,2420.00
2023-03-08T12:22:30.436Z,2428.00
2023-03-08T12:23:30.358Z,2464.00
2023-03-08T12:24:30.310Z,2532.00
2023-03-08T12:25:51.166Z,2624.00
2023-03-08T12:26:30.189Z,2704.00
2023-03-08T12:27:30.126Z,2780.00
2023-03-08T12:28:29.986Z,2864.00
2023-03-08T12:29:29.950Z,2932.00
2023-03-08T12:30:29.874Z,2988.00
2023-03-08T12:31:50.947Z,2988.00
2023-03-08T12:32:29.862Z,2932.00
2023-03-08T12:33:29.757Z,2852.00
2023-03-08T12:34:29.589Z,2784.00
2023-03-08T12:35:29.547Z,2720.00